Ashland, Kansas
Current Conditions -  °F | °C
As of 10:52 PM on Saturday 22 Nov 2014 (Local Time) from KDDC Reporting Station
Overcast Overcast  
Wind Chill: 53°   Ceiling: 800
Heat Index: 53°   Visibility: 10mi
Dew Point: 49°   Wind: 20mph
Humidity: 86%   Direction: 190°S
Pressure: 29.56"   Gusts: NA
Location:  37.19°N, 99.77°W
Report Text: KDDC 230452Z AUTO 19017KT 10SM OVC008 12/09 A2956 RMK AO2 PK WND 19031/0405 SLP001 T01170094
Loading
Personal Weather Stations






























Interactive Weather Map New forecast layout! Learn more

10-Day Weather Forecast

Advertisements
Track Severe Weather on mobile